Time;durP1;ratioP1;P1;durP2;ratioP2;P2;SDS_P1;SDS_P2;PMS_P1;PMS_P2;Temp;Humidity;BMP_temperature;BMP_pressure;BME280_temperature;BME280_humidity;BME280_pressure;Samples;Min_cycle;Max_cycle;Signal;HPM_P1;HPM_P2
2022/05/31 00:01:20;;;;;;;1999.90;999.90;;;13.00;98.80;;;;;;4937700;29;20047;-83
2022/05/31 00:03:46;;;;;;;1999.90;999.90;;;13.00;99.00;;;;;;4934986;29;20023;-76
2022/05/31 00:06:11;;;;;;;1999.90;999.90;;;12.90;99.00;;;;;;4954748;29;20038;-76
2022/05/31 00:08:37;;;;;;;1999.90;999.90;;;12.90;99.10;;;;;;4938426;29;20027;-83
2022/05/31 00:11:03;;;;;;;1999.90;999.90;;;12.80;99.10;;;;;;4935101;29;20031;-83
2022/05/31 00:13:29;;;;;;;1999.90;999.90;;;12.90;99.20;;;;;;4942421;29;20037;-83
2022/05/31 00:15:55;;;;;;;1999.90;999.90;;;12.90;99.30;;;;;;4944167;29;20039;-83
2022/05/31 00:18:21;;;;;;;1999.90;999.90;;;12.80;99.30;;;;;;4947194;28;20024;-76
2022/05/31 00:20:47;;;;;;;1999.90;999.90;;;12.80;99.30;;;;;;4937969;29;20483;-76
2022/05/31 00:23:13;;;;;;;1999.90;999.90;;;12.90;99.30;;;;;;4947865;29;20074;-83
2022/05/31 00:25:39;;;;;;;1999.90;999.90;;;12.90;99.30;;;;;;4935622;29;20027;-83
2022/05/31 00:28:06;;;;;;;1999.90;999.90;;;12.90;99.30;;;;;;4934590;29;20047;-83
2022/05/31 00:30:33;;;;;;;1999.90;999.90;;;12.90;99.40;;;;;;4930808;29;20059;-76
2022/05/31 00:33:01;;;;;;;1999.90;999.90;;;12.90;99.40;;;;;;4933060;29;20019;-76
2022/05/31 00:35:31;;;;;;;1999.90;999.90;;;12.80;99.40;;;;;;4933254;29;20466;-83
2022/05/31 00:37:59;;;;;;;1999.90;999.90;;;12.80;99.50;;;;;;4919646;29;20083;-83
2022/05/31 00:40:27;;;;;;;1999.90;999.90;;;12.70;99.60;;;;;;4929931;29;20042;-83
2022/05/31 00:43:00;;;;;;;1999.90;999.90;;;12.70;99.70;;;;;;4914820;29;20492;-76
2022/05/31 00:45:29;;;;;;;;;;;12.60;99.90;;;;;;4930474;29;20119;-83
2022/05/31 00:47:56;;;;;;;1999.90;999.90;;;12.60;99.90;;;;;;4920838;29;20286;-76
2022/05/31 00:50:35;;;;;;;1999.90;999.90;;;12.50;99.90;;;;;;4935169;29;20048;-76
2022/05/31 00:53:07;;;;;;;1999.90;999.90;;;12.50;99.90;;;;;;4926571;29;20028;-83
2022/05/31 00:55:38;;;;;;;1999.90;999.90;;;12.40;99.90;;;;;;4924594;29;20032;-76
2022/05/31 00:58:21;;;;;;;1999.90;999.90;;;12.40;99.90;;;;;;4919668;29;20038;-83
2022/05/31 01:00:47;;;;;;;1999.90;999.90;;;12.50;99.90;;;;;;4936393;29;20499;-82
2022/05/31 01:03:16;;;;;;;1999.90;999.90;;;12.50;99.90;;;;;;4930272;29;20308;-83
2022/05/31 01:05:42;;;;;;;1999.90;999.90;;;12.50;99.90;;;;;;4936040;29;20578;-83
2022/05/31 01:08:08;;;;;;;1999.90;999.90;;;12.50;99.90;;;;;;4934010;29;20019;-76
2022/05/31 01:10:34;;;;;;;1999.90;999.90;;;12.60;99.90;;;;;;4919330;29;20035;-82
2022/05/31 01:13:00;;;;;;;1999.90;999.90;;;12.50;99.90;;;;;;4920436;29;20123;-82
2022/05/31 01:15:26;;;;;;;1999.90;999.90;;;12.50;99.90;;;;;;4917979;29;20491;-83
2022/05/31 01:17:53;;;;;;;1999.90;999.90;;;12.50;99.90;;;;;;4933978;29;20521;-83
2022/05/31 01:20:21;;;;;;;1999.90;999.90;;;12.50;99.90;;;;;;4926909;29;20036;-82
2022/05/31 01:22:54;;;;;;;1999.90;999.90;;;12.40;99.90;;;;;;4928839;28;20063;-76
2022/05/31 01:25:23;;;;;;;1999.90;999.90;;;12.40;99.90;;;;;;4943525;29;20066;-83
2022/05/31 01:28:26;;;;;;;1999.90;999.90;;;12.30;99.90;;;;;;4956014;28;20433;-83
2022/05/31 01:31:16;;;;;;;1999.90;999.90;;;12.30;99.90;;;;;;4961234;28;20031;-76
2022/05/31 01:34:07;;;;;;;1999.90;999.90;;;12.20;99.90;;;;;;4958235;28;20267;-83
2022/05/31 01:36:47;;;;;;;1999.90;999.90;;;12.20;99.90;;;;;;4937408;29;20042;-76
2022/05/31 01:39:38;;;;;;;1999.90;999.90;;;12.10;99.90;;;;;;4955532;28;20023;-83
2022/05/31 01:42:21;;;;;;;1999.90;999.90;;;12.10;99.90;;;;;;4969151;28;20077;-76
2022/05/31 01:44:52;;;;;;;1999.90;999.90;;;12.10;99.90;;;;;;4963814;28;20070;-83
2022/05/31 01:47:19;;;;;;;1999.90;999.90;;;12.00;99.90;;;;;;4931958;29;20035;-76
2022/05/31 01:49:49;;;;;;;1999.90;999.90;;;12.00;99.90;;;;;;4963803;28;20078;-76
2022/05/31 01:52:15;;;;;;;1999.90;999.90;;;12.00;99.90;;;;;;4937445;29;20119;-76
2022/05/31 01:54:42;;;;;;;1999.90;999.90;;;12.00;99.90;;;;;;4963697;28;20062;-83
2022/05/31 01:57:12;;;;;;;1999.90;999.90;;;11.90;99.90;;;;;;4959094;28;20026;-83
2022/05/31 01:59:46;;;;;;;1999.90;999.90;;;11.90;99.90;;;;;;4962514;28;20027;-83
2022/05/31 02:02:15;;;;;;;1999.90;999.90;;;11.90;99.90;;;;;;4943716;28;20066;-76
2022/05/31 02:04:42;;;;;;;1999.90;999.90;;;11.80;99.90;;;;;;4973578;28;20118;-76
2022/05/31 02:07:16;;;;;;;1999.90;999.90;;;11.80;99.90;;;;;;4956404;28;20035;-82
2022/05/31 02:09:45;;;;;;;1999.90;999.90;;;11.80;99.90;;;;;;4956040;28;20019;-76
2022/05/31 02:12:12;;;;;;;1999.90;999.90;;;11.80;99.90;;;;;;4973826;28;20110;-82
2022/05/31 02:14:39;;;;;;;1999.90;999.90;;;11.80;99.90;;;;;;4951477;28;20030;-76
2022/05/31 02:17:05;;;;;;;1999.90;999.90;;;11.70;99.90;;;;;;4948398;28;20470;-83
2022/05/31 02:19:32;;;;;;;1999.90;999.90;;;11.70;99.90;;;;;;4967820;28;20059;-76
2022/05/31 02:22:03;;;;;;;1999.90;999.90;;;11.70;99.90;;;;;;4963434;28;20027;-76
2022/05/31 02:24:30;;;;;;;1999.90;999.90;;;11.70;99.90;;;;;;4968069;28;20514;-83
2022/05/31 02:26:56;;;;;;;1999.90;999.90;;;11.60;99.90;;;;;;4938769;29;20042;-76
2022/05/31 02:29:24;;;;;;;1999.90;999.90;;;11.60;99.90;;;;;;4958122;28;20062;-76
2022/05/31 02:31:51;;;;;;;1999.90;999.90;;;11.60;99.90;;;;;;4961166;28;20390;-76
2022/05/31 02:34:22;;;;;;;1999.90;999.90;;;11.60;99.90;;;;;;4933683;29;20023;-76
2022/05/31 02:36:49;;;;;;;1999.90;999.90;;;11.50;99.90;;;;;;4944548;28;20031;-82
2022/05/31 02:39:16;;;;;;;1999.90;999.90;;;11.50;99.90;;;;;;4957448;28;20030;-76
2022/05/31 02:41:42;;;;;;;1999.90;999.90;;;11.50;99.90;;;;;;4966116;28;20039;-77
2022/05/31 02:44:08;;;;;;;1999.90;999.90;;;11.40;99.90;;;;;;4961956;28;20030;-76
2022/05/31 02:46:35;;;;;;;1999.90;999.90;;;11.40;99.90;;;;;;4958460;28;20027;-76
2022/05/31 02:49:04;;;;;;;1999.90;999.90;;;11.40;99.90;;;;;;4960089;28;20113;-83
2022/05/31 02:51:36;;;;;;;1999.90;999.90;;;11.30;99.90;;;;;;4960393;28;20028;-83
2022/05/31 02:54:02;;;;;;;1999.90;999.90;;;11.30;99.90;;;;;;4951909;28;20459;-76
2022/05/31 02:56:28;;;;;;;1999.90;999.90;;;11.30;99.90;;;;;;4966451;28;20031;-83
2022/05/31 02:58:54;;;;;;;1999.90;999.90;;;11.30;99.90;;;;;;4954124;29;20034;-83
2022/05/31 03:01:38;;;;;;;1999.90;999.90;;;11.30;99.90;;;;;;4954932;28;20491;-83
2022/05/31 03:04:05;;;;;;;1999.90;999.90;;;11.20;99.90;;;;;;4939894;29;20039;-83
2022/05/31 03:06:32;;;;;;;1999.90;999.90;;;11.20;99.90;;;;;;4954947;28;20034;-83
2022/05/31 03:08:58;;;;;;;1999.90;999.90;;;11.20;99.90;;;;;;4967188;28;20027;-83
2022/05/31 03:11:35;;;;;;;1999.90;999.90;;;11.10;99.90;;;;;;4961659;28;20070;-83
2022/05/31 03:14:39;;;;;;;1999.90;999.90;;;11.10;99.90;;;;;;4951538;28;20037;-83
2022/05/31 03:17:17;;;;;;;1999.90;999.90;;;11.10;99.90;;;;;;4959503;28;20027;-83
2022/05/31 03:19:51;;;;;;;1999.90;999.90;;;11.10;99.90;;;;;;4956791;29;20106;-76
2022/05/31 03:22:23;;;;;;;1999.90;999.90;;;11.10;99.90;;;;;;4953003;28;20140;-76
2022/05/31 03:25:22;;;;;;;1999.90;999.90;;;11.00;99.90;;;;;;4976770;28;20086;-76
2022/05/31 03:27:50;;;;;;;1999.90;999.90;;;11.00;99.90;;;;;;4949587;28;20442;-83
2022/05/31 03:30:16;;;;;;;1999.90;999.90;;;11.00;99.90;;;;;;4959380;28;20031;-83
2022/05/31 03:32:44;;;;;;;1999.90;999.90;;;10.90;99.90;;;;;;4958502;28;20106;-76
2022/05/31 03:35:11;;;;;;;1999.90;999.90;;;10.90;99.90;;;;;;4968100;28;20035;-83
2022/05/31 03:37:38;;;;;;;1999.90;999.90;;;10.90;99.90;;;;;;4969779;28;20106;-83
2022/05/31 03:40:05;;;;;;;1999.90;999.90;;;10.80;99.90;;;;;;4940469;28;20486;-83
2022/05/31 03:42:31;;;;;;;1999.90;999.90;;;10.80;99.90;;;;;;4970894;28;20031;-83
2022/05/31 03:44:57;;;;;;;1999.90;999.90;;;10.80;99.90;;;;;;4969960;28;20049;-83
2022/05/31 03:47:34;;;;;;;1999.90;999.90;;;10.80;99.90;;;;;;4957190;28;20051;-76
2022/05/31 03:50:00;;;;;;;1999.90;999.90;;;10.80;99.90;;;;;;4970401;28;20027;-76
2022/05/31 03:52:26;;;;;;;1999.90;999.90;;;10.80;99.90;;;;;;4967844;28;20028;-76
2022/05/31 03:54:51;;;;;;;1999.90;999.90;;;10.90;99.90;;;;;;4971561;28;20159;-83
2022/05/31 03:57:21;;;;;;;1999.90;999.90;;;10.90;99.90;;;;;;4962699;28;20032;-76
2022/05/31 03:59:48;;;;;;;1999.90;999.90;;;10.90;99.90;;;;;;4951735;28;20035;-76
2022/05/31 04:02:13;;;;;;;1999.90;999.90;;;10.80;99.90;;;;;;4950437;29;20027;-83
2022/05/31 04:04:39;;;;;;;1999.90;999.90;;;10.80;99.90;;;;;;4960173;28;20082;-83
2022/05/31 04:07:05;;;;;;;1999.90;999.90;;;10.80;99.90;;;;;;4981465;28;20059;-82
2022/05/31 04:09:31;;;;;;;1999.90;999.90;;;10.80;99.90;;;;;;4982130;28;20530;-83
2022/05/31 04:11:59;;;;;;;1999.90;999.90;;;10.80;99.90;;;;;;4963979;28;20090;-83
2022/05/31 04:14:24;;;;;;;1999.90;999.90;;;10.80;99.90;;;;;;4954064;28;20035;-76
2022/05/31 04:16:50;;;;;;;1999.90;999.90;;;10.80;99.90;;;;;;4946258;28;20027;-83
2022/05/31 04:19:16;;;;;;;1999.90;999.90;;;10.80;99.90;;;;;;4970938;28;20054;-83
2022/05/31 04:21:42;;;;;;;1999.90;999.90;;;10.70;99.90;;;;;;4947532;28;20478;-83
2022/05/31 04:24:09;;;;;;;1999.90;999.90;;;10.70;99.90;;;;;;4962698;28;20478;-83
2022/05/31 04:26:44;;;;;;;1999.90;999.90;;;10.70;99.90;;;;;;4967584;28;20055;-76
2022/05/31 04:29:10;;;;;;;1999.90;999.90;;;10.60;99.90;;;;;;4970479;28;20028;-76
2022/05/31 04:31:36;;;;;;;1999.90;999.90;;;10.60;99.90;;;;;;4948094;29;20086;-76
2022/05/31 04:34:04;;;;;;;1999.90;999.90;;;10.60;99.90;;;;;;4958817;28;20019;-83
2022/05/31 04:36:31;;;;;;;1999.90;999.90;;;10.70;99.90;;;;;;4964160;28;20023;-76
2022/05/31 04:38:59;;;;;;;1999.90;999.90;;;10.60;99.90;;;;;;4960704;28;20497;-83
2022/05/31 04:41:27;;;;;;;1999.90;999.90;;;10.60;99.90;;;;;;4966022;28;20502;-83
2022/05/31 04:43:54;;;;;;;1999.90;999.90;;;10.60;99.90;;;;;;4960515;28;20543;-76
2022/05/31 04:46:23;;;;;;;1999.90;999.90;;;10.60;99.90;;;;;;4945990;29;20475;-83
2022/05/31 04:48:50;;;;;;;1999.90;999.90;;;10.70;99.90;;;;;;4959910;28;20022;-76
2022/05/31 04:51:16;;;;;;;1999.90;999.90;;;10.70;99.90;;;;;;4970641;28;20023;-76
2022/05/31 04:53:42;;;;;;;1999.90;999.90;;;10.70;99.90;;;;;;4935425;29;20387;-76
2022/05/31 04:56:12;;;;;;;1999.90;999.90;;;10.80;99.90;;;;;;4938701;29;20410;-83
2022/05/31 04:58:38;;;;;;;1999.90;999.90;;;10.80;99.90;;;;;;4935967;29;20023;-82
2022/05/31 05:01:07;;;;;;;1999.90;999.90;;;10.90;99.90;;;;;;4955457;29;20038;-84
2022/05/31 05:03:35;;;;;;;1999.90;999.90;;;10.90;99.90;;;;;;4968131;28;20029;-76
2022/05/31 05:06:03;;;;;;;1999.90;999.90;;;11.00;99.90;;;;;;4967139;28;20510;-84
2022/05/31 05:08:30;;;;;;;1999.90;999.90;;;11.00;99.90;;;;;;4938681;29;20126;-86
2022/05/31 05:11:00;;;;;;;1999.90;999.90;;;11.00;99.90;;;;;;4955305;28;20560;-87
2022/05/31 05:13:26;;;;;;;1999.90;999.90;;;11.00;99.90;;;;;;4938226;29;20041;-84
2022/05/31 05:15:53;;;;;;;1999.90;999.90;;;11.00;99.90;;;;;;4956130;28;20032;-76
2022/05/31 05:18:19;;;;;;;1999.90;999.90;;;11.00;99.90;;;;;;4944227;28;20033;-83
2022/05/31 05:20:45;;;;;;;1999.90;999.90;;;11.10;99.90;;;;;;4941910;29;20486;-77
2022/05/31 05:23:12;;;;;;;1999.90;999.90;;;11.10;99.90;;;;;;4962630;28;20055;-83
2022/05/31 05:25:38;;;;;;;1999.90;999.90;;;11.10;99.90;;;;;;4961042;28;20031;-84
2022/05/31 05:30:38;;;;;;;1999.90;999.90;;;11.20;99.90;;;;;;4962353;28;20027;-80
2022/05/31 05:30:50;;;;;;;1999.90;999.90;;;11.30;99.90;;;;;;4969056;28;20122;-86
2022/05/31 05:33:16;;;;;;;1999.90;999.90;;;11.40;99.90;;;;;;4937441;29;20027;-84
2022/05/31 05:35:42;;;;;;;1999.90;999.90;;;11.50;99.90;;;;;;4941876;28;20026;-78
2022/05/31 05:38:09;;;;;;;1999.90;999.90;;;11.60;99.90;;;;;;4954372;28;20033;-84
2022/05/31 05:40:35;;;;;;;1999.90;999.90;;;11.70;99.90;;;;;;4956907;28;20026;-84
2022/05/31 05:43:01;;;;;;;1999.90;999.90;;;11.90;99.90;;;;;;4966699;28;20031;-79
2022/05/31 05:45:27;;;;;;;1999.90;999.90;;;11.90;99.90;;;;;;4953562;29;20073;-84
2022/05/31 05:47:54;;;;;;;1999.90;999.90;;;12.10;99.90;;;;;;4956021;28;20027;-84
2022/05/31 05:50:19;;;;;;;1999.90;999.90;;;12.20;99.90;;;;;;4936221;29;20564;-78
2022/05/31 05:52:50;;;;;;;1999.90;999.90;;;12.40;99.90;;;;;;4938202;29;20027;-85
2022/05/31 05:55:16;;;;;;;1999.90;999.90;;;12.70;99.90;;;;;;4940471;28;20030;-78
2022/05/31 05:57:42;;;;;;;1999.90;999.90;;;13.00;99.90;;;;;;4936801;29;20487;-79
2022/05/31 06:00:09;;;;;;;1999.90;999.90;;;13.30;99.90;;;;;;4963979;28;20568;-79
2022/05/31 06:02:36;;;;;;;1999.90;999.90;;;13.50;99.40;;;;;;4954449;29;20078;-79
2022/05/31 06:05:14;;;;;;;1999.90;999.90;;;13.50;98.90;;;;;;4955217;28;20023;-84
2022/05/31 06:07:57;;;;;;;1999.90;999.90;;;13.70;99.20;;;;;;4966401;28;20023;-79
2022/05/31 06:10:38;;;;;;;1999.90;999.90;;;13.80;98.70;;;;;;4948899;29;20011;-84
2022/05/31 06:13:15;;;;;;;1999.90;999.90;;;13.90;98.60;;;;;;4937435;29;20557;-85
2022/05/31 06:15:47;;;;;;;1999.90;999.90;;;14.00;98.60;;;;;;4954197;29;20031;-79
2022/05/31 06:18:21;;;;;;;1999.90;999.90;;;14.10;97.90;;;;;;4921113;29;20126;-85
2022/05/31 06:20:52;;;;;;;1999.90;999.90;;;14.30;97.80;;;;;;4954592;28;20031;-79
2022/05/31 06:23:18;;;;;;;1999.90;999.90;;;14.50;97.80;;;;;;4944702;28;20062;-79
2022/05/31 06:25:44;;;;;;;1999.90;999.90;;;14.70;97.20;;;;;;4940477;29;20037;-85
2022/05/31 06:28:10;;;;;;;1999.90;999.90;;;14.70;96.80;;;;;;4936843;29;20166;-84
2022/05/31 06:30:37;;;;;;;1999.90;999.90;;;14.60;96.80;;;;;;4936613;29;20050;-78
2022/05/31 06:33:05;;;;;;;1999.90;999.90;;;14.60;97.10;;;;;;4937641;28;20027;-82
2022/05/31 06:35:31;;;;;;;1999.90;999.90;;;14.60;97.20;;;;;;4937869;29;20036;-85
2022/05/31 06:37:57;;;;;;;1999.90;999.90;;;14.50;97.50;;;;;;4953638;29;20042;-86
2022/05/31 06:40:22;;;;;;;1999.90;999.90;;;14.60;97.70;;;;;;4953029;28;20027;-85
2022/05/31 06:42:48;;;;;;;1999.90;999.90;;;14.70;97.60;;;;;;4941215;29;20486;-86
2022/05/31 06:45:14;;;;;;;1999.90;999.90;;;14.80;97.40;;;;;;4957185;28;20031;-85
2022/05/31 06:47:40;;;;;;;1999.90;999.90;;;15.00;96.80;;;;;;4939634;29;20508;-80
2022/05/31 06:50:07;;;;;;;1999.90;999.90;;;15.20;96.60;;;;;;4943524;28;20094;-78
2022/05/31 06:58:12;;;;;;;1999.90;999.90;;;16.00;95.40;;;;;;4956504;28;20528;-79
2022/05/31 07:00:37;;;;;;;1999.90;999.90;;;15.90;94.90;;;;;;4956442;29;20035;-81
2022/05/31 07:03:14;;;;;;;1999.90;999.90;;;15.80;95.10;;;;;;4968096;28;20038;-83
2022/05/31 07:05:40;;;;;;;1999.90;999.90;;;15.90;95.50;;;;;;4964244;28;20486;-81
2022/05/31 07:08:06;;;;;;;1999.90;999.90;;;16.00;95.10;;;;;;4947036;29;20034;-83
2022/05/31 07:10:31;;;;;;;1999.90;999.90;;;16.00;95.00;;;;;;4953756;28;20107;-81
2022/05/31 07:12:57;;;;;;;1999.90;999.90;;;16.00;95.20;;;;;;4956092;28;21251;-80
2022/05/31 07:15:25;;;;;;;1999.90;999.90;;;16.10;95.00;;;;;;4952794;29;20114;-81
2022/05/31 07:17:51;;;;;;;1999.90;999.90;;;16.30;95.00;;;;;;4958092;28;20023;-81
2022/05/31 07:20:17;;;;;;;1999.90;999.90;;;16.50;94.40;;;;;;4937298;29;20037;-81
2022/05/31 07:22:43;;;;;;;1999.90;999.90;;;16.70;94.30;;;;;;4954285;28;20038;-80
2022/05/31 07:25:09;;;;;;;1999.90;999.90;;;17.10;94.10;;;;;;4937840;29;20039;-81
2022/05/31 07:27:36;;;;;;;1999.90;999.90;;;17.30;93.80;;;;;;4939773;28;20042;-81
2022/05/31 07:30:04;;;;;;;1999.90;999.90;;;17.40;93.50;;;;;;4936268;29;20038;-83
2022/05/31 07:32:30;;;;;;;1999.90;999.90;;;17.80;93.40;;;;;;4937263;29;20043;-82
2022/05/31 07:34:55;;;;;;;1999.90;999.90;;;20.10;91.00;;;;;;4937894;29;20498;-83
2022/05/31 07:37:21;;;;;;;1999.90;999.90;;;22.20;86.00;;;;;;4939144;28;20034;-82
2022/05/31 07:39:48;;;;;;;1999.90;999.90;;;24.00;82.00;;;;;;4955116;29;20042;-82
2022/05/31 07:42:14;;;;;;;1999.90;999.90;;;24.60;79.10;;;;;;4937736;29;20078;-82
2022/05/31 07:44:40;;;;;;;1999.90;999.90;;;25.20;77.60;;;;;;4955683;29;20055;-84
2022/05/31 07:47:05;;;;;;;1999.90;999.90;;;25.30;77.40;;;;;;4943989;29;20817;-84
2022/05/31 07:49:32;;;;;;;1999.90;999.90;;;26.00;75.20;;;;;;4938178;29;20082;-83
2022/05/31 07:52:08;;;;;;;1999.90;999.90;;;26.80;74.60;;;;;;4943971;28;20062;-83
2022/05/31 07:54:34;;;;;;;1999.90;999.90;;;27.50;72.70;;;;;;4958527;28;20058;-82
2022/05/31 07:57:01;;;;;;;1999.90;999.90;;;27.20;71.90;;;;;;4952589;28;20038;-83
2022/05/31 07:59:27;;;;;;;1999.90;999.90;;;27.70;71.40;;;;;;4940306;29;20529;-84
2022/05/31 08:01:53;;;;;;;1999.90;999.90;;;27.80;72.00;;;;;;4954162;29;20039;-83
2022/05/31 08:04:18;;;;;;;1999.90;999.90;;;28.30;71.60;;;;;;4968362;28;20077;-85
2022/05/31 08:06:44;;;;;;;1999.90;999.90;;;28.40;70.50;;;;;;4960079;28;20379;-85
2022/05/31 08:09:10;;;;;;;1999.90;999.90;;;28.80;70.10;;;;;;4956048;28;20351;-83
2022/05/31 08:11:35;;;;;;;1999.90;999.90;;;29.50;69.40;;;;;;4955298;29;20038;-81
2022/05/31 08:14:03;;;;;;;1999.90;999.90;;;29.50;68.60;;;;;;4939218;29;20045;-81
2022/05/31 08:16:30;;;;;;;1999.90;999.90;;;29.70;68.70;;;;;;4942594;29;20110;-82
2022/05/31 08:18:56;;;;;;;1999.90;999.90;;;30.10;68.60;;;;;;4942127;29;20039;-83
2022/05/31 08:21:27;;;;;;;1999.90;999.90;;;30.70;67.20;;;;;;4958957;28;20027;-83
2022/05/31 08:23:57;;;;;;;1999.90;999.90;;;31.50;66.50;;;;;;4955250;29;20051;-82
2022/05/31 08:26:23;;;;;;;1999.90;999.90;;;31.10;66.10;;;;;;4962081;29;20027;-81
2022/05/31 08:28:49;;;;;;;1999.90;999.90;;;31.10;66.20;;;;;;4971551;29;20019;-82
2022/05/31 08:31:20;;;;;;;1999.90;999.90;;;31.00;65.10;;;;;;4951791;29;20031;-83
2022/05/31 08:33:46;;;;;;;1999.90;999.90;;;31.80;64.90;;;;;;4974359;28;20086;-84
2022/05/31 08:36:12;;;;;;;1999.90;999.90;;;33.30;63.90;;;;;;4949103;29;20031;-84
2022/05/31 08:38:38;;;;;;;1999.90;999.90;;;32.90;61.30;;;;;;4931876;29;20035;-84
2022/05/31 08:41:33;;;;;;;1999.90;999.90;;;32.30;62.40;;;;;;4937554;29;20031;-85
2022/05/31 08:44:12;;;;;;;1999.90;999.90;;;33.40;62.60;;;;;;4937321;28;20114;-85
2022/05/31 08:46:56;;;;;;;1999.90;999.90;;;34.00;60.90;;;;;;4947720;28;20035;-84
2022/05/31 08:52:52;;;;;;;1999.90;999.90;;;33.50;60.90;;;;;;4950319;29;20045;-85
2022/05/31 08:58:13;;;;;;;1999.90;999.90;;;33.60;59.80;;;;;;4955884;28;20046;-85
2022/05/31 09:00:44;;;;;;;1999.90;999.90;;;33.30;60.00;;;;;;4935328;29;20050;-83
2022/05/31 09:03:28;;;;;;;1999.90;999.90;;;33.80;59.10;;;;;;4947623;28;20028;-85
2022/05/31 09:06:03;;;;;;;1999.90;999.90;;;34.10;58.90;;;;;;4953426;28;20483;-84
2022/05/31 09:08:44;;;;;;;1999.90;999.90;;;34.20;58.30;;;;;;4933828;29;20031;-84
2022/05/31 09:11:26;;;;;;;1999.90;999.90;;;33.90;57.90;;;;;;4955863;28;20023;-84
2022/05/31 09:14:11;;;;;;;;;;;34.00;58.00;;;;;;4937389;28;20046;-86
2022/05/31 09:17:00;;;;;;;1999.90;999.90;;;34.10;57.80;;;;;;4950556;28;19910;-83
2022/05/31 09:20:00;;;;;;;1999.90;999.90;;;34.20;58.00;;;;;;4933999;29;20027;-84
2022/05/31 09:22:25;;;;;;;1999.90;999.90;;;33.80;58.50;;;;;;4948111;28;20059;-84
2022/05/31 09:24:51;;;;;;;1999.90;999.90;;;34.50;57.30;;;;;;4956250;28;20876;-85
2022/05/31 09:27:44;;;;;;;1999.90;999.90;;;34.10;57.00;;;;;;4939240;28;20028;-84
2022/05/31 09:30:14;;;;;;;1999.90;999.90;;;33.90;57.20;;;;;;4947954;28;20023;-85
2022/05/31 09:32:48;;;;;;;1999.90;999.90;;;34.00;58.60;;;;;;4948998;29;20054;-83
2022/05/31 09:35:30;;;;;;;1999.90;999.90;;;34.50;56.80;;;;;;4936116;29;21185;-84
2022/05/31 09:38:34;;;;;;;1999.90;999.90;;;34.40;56.00;;;;;;4953496;29;20027;-83
2022/05/31 09:41:07;;;;;;;1999.90;999.90;;;34.20;56.70;;;;;;4933847;28;20105;-81
2022/05/31 09:43:51;;;;;;;1999.90;999.90;;;34.40;57.70;;;;;;4941725;28;20039;-84
2022/05/31 09:46:19;;;;;;;1999.90;999.90;;;34.40;57.10;;;;;;4952327;28;20042;-80
2022/05/31 09:48:47;;;;;;;1999.90;999.90;;;33.80;56.70;;;;;;4956973;28;20133;-84
2022/05/31 09:51:25;;;;;;;1999.90;999.90;;;34.10;56.00;;;;;;4934712;29;20495;-84
2022/05/31 09:59:25;;;;;;;1999.90;999.90;;;33.70;55.60;;;;;;4952844;28;20125;-83
2022/05/31 10:01:52;;;;;;;1999.90;999.90;;;34.30;56.00;;;;;;4945603;28;20110;-83
2022/05/31 10:04:23;;;;;;;1999.90;999.90;;;34.80;55.90;;;;;;4938329;29;20046;-81
2022/05/31 10:06:54;;;;;;;1999.90;999.90;;;33.80;56.40;;;;;;4938430;29;20023;-82
2022/05/31 10:09:28;;;;;;;1999.90;999.90;;;33.70;57.30;;;;;;4937228;29;20274;-84
2022/05/31 10:12:15;;;;;;;1999.90;999.90;;;33.60;56.80;;;;;;4952789;28;20027;-81
2022/05/31 10:14:44;;;;;;;1999.90;999.90;;;33.10;57.30;;;;;;4928527;29;20027;-81
2022/05/31 10:17:34;;;;;;;1999.90;999.90;;;33.00;57.00;;;;;;4936806;29;20039;-83
2022/05/31 10:20:15;;;;;;;1999.90;999.90;;;32.90;57.10;;;;;;4936937;29;20113;-82
2022/05/31 10:22:54;;;;;;;1999.90;999.90;;;32.70;57.20;;;;;;4955631;29;20035;-82
2022/05/31 10:25:23;;;;;;;1999.90;999.90;;;33.00;57.70;;;;;;4943614;29;20035;-83
2022/05/31 10:27:59;;;;;;;1999.90;999.90;;;33.50;58.10;;;;;;4951176;29;20104;-83
2022/05/31 10:30:26;;;;;;;1999.90;999.90;;;34.00;57.50;;;;;;4930417;29;20031;-82
2022/05/31 10:32:55;;;;;;;1999.90;999.90;;;33.90;57.30;;;;;;4941133;29;20463;-83
2022/05/31 10:35:43;;;;;;;1999.90;999.90;;;33.40;56.70;;;;;;4961986;28;20902;-81
2022/05/31 10:38:18;;;;;;;1999.90;999.90;;;33.40;57.10;;;;;;4936302;28;20038;-80
2022/05/31 10:41:03;;;;;;;1999.90;999.90;;;33.50;57.50;;;;;;4976889;28;20445;-84
2022/05/31 10:43:51;;;;;;;1999.90;999.90;;;33.40;56.60;;;;;;4954991;28;20035;-82
2022/05/31 10:46:30;;;;;;;1999.90;999.90;;;33.10;56.30;;;;;;4944069;28;20039;-80
2022/05/31 10:48:59;;;;;;;1999.90;999.90;;;32.20;56.50;;;;;;4965053;28;20445;-82
2022/05/31 10:51:34;;;;;;;1999.90;999.90;;;32.40;56.60;;;;;;4957007;28;20023;-84
2022/05/31 10:54:19;;;;;;;1999.90;999.90;;;32.50;56.10;;;;;;4960532;28;20019;-81
2022/05/31 10:57:03;;;;;;;1999.90;999.90;;;33.20;57.00;;;;;;4940235;29;20031;-81
2022/05/31 10:59:53;;;;;;;1999.90;999.90;;;33.20;55.80;;;;;;4941998;29;20031;-81
2022/05/31 11:02:31;;;;;;;1999.90;999.90;;;32.70;57.00;;;;;;4951173;29;20039;-81
2022/05/31 11:05:00;;;;;;;1999.90;999.90;;;32.90;56.40;;;;;;4931433;29;20027;-81
2022/05/31 11:07:38;;;;;;;1999.90;999.90;;;32.40;57.10;;;;;;4951441;29;20062;-79
2022/05/31 11:13:17;;;;;;;1999.90;999.90;;;32.00;56.90;;;;;;4956751;28;20142;-80
2022/05/31 11:16:05;;;;;;;1999.90;999.90;;;32.40;57.10;;;;;;4955797;28;20023;-79
2022/05/31 11:18:39;;;;;;;1999.90;999.90;;;31.70;57.20;;;;;;4949536;28;20031;-80
2022/05/31 11:21:30;;;;;;;1999.90;999.90;;;31.50;58.10;;;;;;4963266;28;20029;-80
2022/05/31 11:24:17;;;;;;;1999.90;999.90;;;31.70;57.50;;;;;;4945458;28;20054;-79
2022/05/31 11:27:01;;;;;;;1999.90;999.90;;;32.50;56.40;;;;;;4963451;28;20082;-80
2022/05/31 11:29:37;;;;;;;1999.90;999.90;;;32.40;57.00;;;;;;4951867;28;20026;-79
2022/05/31 11:32:26;;;;;;;1999.90;999.90;;;32.30;56.20;;;;;;4939570;28;20035;-80
2022/05/31 11:35:10;;;;;;;1999.90;999.90;;;32.70;56.80;;;;;;4960564;28;20038;-80
2022/05/31 11:38:05;;;;;;;1999.90;999.90;;;32.40;57.10;;;;;;4958688;28;20114;-81
2022/05/31 11:41:06;;;;;;;1999.90;999.90;;;32.50;56.20;;;;;;4957479;28;20038;-80
2022/05/31 11:43:51;;;;;;;1999.90;999.90;;;32.30;55.90;;;;;;4956359;28;20537;-81
2022/05/31 11:46:26;;;;;;;1999.90;999.90;;;32.00;56.10;;;;;;4946883;29;20076;-81
2022/05/31 11:48:57;;;;;;;1999.90;999.90;;;31.80;56.70;;;;;;4951083;29;20499;-80
2022/05/31 11:51:42;;;;;;;;;;;32.40;56.70;;;;;;4938509;29;20494;-81
2022/05/31 11:54:18;;;;;;;1999.90;999.90;;;32.70;56.80;;;;;;4938555;29;19910;-84
2022/05/31 11:57:42;;;;;;;1999.90;999.90;;;32.40;55.30;;;;;;4955454;29;20466;-84
2022/05/31 12:00:11;;;;;;;1999.90;999.90;;;32.30;55.40;;;;;;4888736;29;20115;-83
2022/05/31 12:02:52;;;;;;;1999.90;999.90;;;31.10;55.10;;;;;;4944203;29;20042;-82
2022/05/31 12:05:29;;;;;;;1999.90;999.90;;;31.50;56.10;;;;;;4946322;29;20019;-84
2022/05/31 12:08:00;;;;;;;1999.90;999.90;;;31.20;56.00;;;;;;4953651;28;20035;-83
2022/05/31 12:10:28;;;;;;;1999.90;999.90;;;30.00;58.30;;;;;;4941938;28;20039;-83
2022/05/31 12:12:58;;;;;;;1999.90;999.90;;;30.20;57.40;;;;;;4937466;29;20122;-83
2022/05/31 12:15:30;;;;;;;1999.90;999.90;;;30.80;57.60;;;;;;4932573;29;20114;-83
2022/05/31 12:18:08;;;;;;;1999.90;999.90;;;30.90;58.20;;;;;;4930885;29;20035;-84
2022/05/31 12:20:52;;;;;;;1999.90;999.90;;;30.90;56.30;;;;;;4942995;29;20042;-84
2022/05/31 12:23:38;;;;;;;1999.90;999.90;;;30.80;56.70;;;;;;4939264;29;20048;-83
2022/05/31 12:26:14;;;;;;;1999.90;999.90;;;28.90;59.10;;;;;;4941876;29;20027;-81
2022/05/31 12:29:05;;;;;;;1999.90;999.90;;;28.20;56.80;;;;;;4937405;29;20031;-85
2022/05/31 12:31:33;;;;;;;1999.90;999.90;;;28.30;59.40;;;;;;4939930;28;20031;-85
2022/05/31 12:34:28;;;;;;;1999.90;999.90;;;27.60;59.80;;;;;;4927564;29;20383;-83
2022/05/31 12:36:58;;;;;;;1999.90;999.90;;;27.70;53.90;;;;;;4941095;29;20039;-82
2022/05/31 12:39:30;;;;;;;1999.90;999.90;;;28.10;55.40;;;;;;4943380;28;20351;-82
2022/05/31 12:41:57;;;;;;;1999.90;999.90;;;28.10;57.40;;;;;;4936680;29;20483;-82
2022/05/31 12:44:31;;;;;;;1999.90;999.90;;;28.80;53.50;;;;;;4942362;28;20031;-83